Time;durP1;ratioP1;P1;durP2;ratioP2;P2;SDS_P1;SDS_P2;PMS_P1;PMS_P2;Temp;Humidity;BMP_temperature;BMP_pressure;BME280_temperature;BME280_humidity;BME280_pressure;Samples;Min_cycle;Max_cycle;Signal;HPM_P1;HPM_P2
2022/02/10 00:13:31;;;;;;;15.20;5.40;;;6.00;99.90;;;;;;5035731;28;20549;-44
2022/02/10 00:16:11;;;;;;;14.80;5.57;;;6.00;99.90;;;;;;5042970;28;20610;-43
2022/02/10 00:21:28;;;;;;;13.57;5.00;;;5.90;99.90;;;;;;5040142;28;20766;-45
2022/02/10 00:24:23;;;;;;;11.90;5.40;;;5.90;99.90;;;;;;5041491;28;20245;-47
2022/02/10 00:35:13;;;;;;;9.83;4.83;;;5.90;99.90;;;;;;5029651;28;20647;-44
2022/02/10 00:37:56;;;;;;;12.57;5.00;;;5.90;99.90;;;;;;5041339;28;20246;-46
2022/02/10 00:40:23;;;;;;;14.07;5.03;;;5.90;99.90;;;;;;5032067;28;20722;-43
2022/02/10 00:42:50;;;;;;;12.23;5.40;;;5.90;99.90;;;;;;5033729;28;20862;-50
2022/02/10 00:45:17;;;;;;;15.63;5.77;;;5.90;99.90;;;;;;5041594;28;20203;-43
2022/02/10 00:47:52;;;;;;;12.53;5.30;;;6.00;99.90;;;;;;5042233;28;20238;-44
2022/02/10 00:50:20;;;;;;;13.63;5.53;;;6.00;99.90;;;;;;5028732;28;20207;-45
2022/02/10 00:52:51;;;;;;;13.30;4.90;;;6.00;99.90;;;;;;5043431;28;20949;-45
2022/02/10 00:55:24;;;;;;;14.97;5.63;;;6.00;99.90;;;;;;5039931;28;20249;-47
2022/02/10 00:57:51;;;;;;;19.47;6.77;;;6.00;99.90;;;;;;5033511;28;20234;-45
2022/02/10 01:02:11;;;;;;;14.87;6.27;;;6.00;99.90;;;;;;5043628;28;20214;-48
2022/02/10 01:31:13;;;;;;;19.97;8.57;;;6.20;99.90;;;;;;5042163;28;20211;-50
2022/02/10 01:33:42;;;;;;;16.67;9.23;;;6.20;99.90;;;;;;5041306;28;20191;-47
2022/02/10 01:36:09;;;;;;;16.63;9.37;;;6.30;99.90;;;;;;5042185;28;20226;-47
2022/02/10 01:38:36;;;;;;;22.83;10.63;;;6.30;99.90;;;;;;5021536;28;20916;-44
2022/02/10 02:03:22;;;;;;;18.23;9.77;;;6.40;99.90;;;;;;5038760;28;20274;-47
2022/02/10 02:05:55;;;;;;;21.10;10.13;;;6.40;99.90;;;;;;5040796;28;20198;-46
2022/02/10 02:08:25;;;;;;;26.17;10.20;;;6.40;99.90;;;;;;5022517;28;20728;-46
2022/02/10 02:10:53;;;;;;;21.20;10.03;;;6.50;99.90;;;;;;5041143;28;20196;-49
2022/02/10 02:13:21;;;;;;;26.20;10.83;;;6.50;99.90;;;;;;5033462;28;20241;-45
2022/02/10 02:15:49;;;;;;;26.40;10.60;;;6.50;99.90;;;;;;5029803;28;20208;-46
2022/02/10 02:18:17;;;;;;;22.97;10.83;;;6.50;99.90;;;;;;5041538;28;20222;-46
2022/02/10 02:20:46;;;;;;;21.83;10.67;;;6.50;99.90;;;;;;5038784;28;20206;-47
2022/02/10 02:23:16;;;;;;;21.53;11.07;;;6.50;99.90;;;;;;5022404;28;20222;-47
2022/02/10 02:25:44;;;;;;;23.30;9.93;;;6.50;99.90;;;;;;5038654;28;20201;-47
2022/02/10 02:28:12;;;;;;;23.40;10.03;;;6.50;99.90;;;;;;5028733;28;20346;-47
2022/02/10 02:30:46;;;;;;;22.13;10.40;;;6.50;99.90;;;;;;5037593;28;20193;-45
2022/02/10 02:39:12;;;;;;;20.33;9.03;;;6.50;99.90;;;;;;4988780;28;24496;-45
2022/02/10 03:06:30;;;;;;;10.97;6.70;;;6.50;99.90;;;;;;5039081;28;20346;-46
2022/02/10 03:09:01;;;;;;;13.13;6.43;;;6.50;99.90;;;;;;5041718;28;20301;-47
2022/02/10 03:11:29;;;;;;;17.30;7.30;;;6.50;99.90;;;;;;5023973;28;20222;-46
2022/02/10 03:14:00;;;;;;;12.97;5.93;;;6.60;99.90;;;;;;5031102;28;20211;-48
2022/02/10 03:16:55;;;;;;;9.13;4.90;;;6.60;99.90;;;;;;5038268;28;20241;-46
2022/02/10 03:19:37;;;;;;;11.70;5.47;;;6.50;99.90;;;;;;5028567;28;20199;-45
2022/02/10 03:22:24;;;;;;;12.33;4.67;;;6.50;99.90;;;;;;5038244;28;20210;-44
2022/02/10 04:03:30;;;;;;;11.83;4.17;;;6.30;99.90;;;;;;5036197;28;20192;-47
2022/02/10 04:06:17;;;;;;;12.53;4.60;;;6.40;99.90;;;;;;5032782;28;20619;-44
2022/02/10 04:09:12;;;;;;;8.53;4.70;;;6.30;99.90;;;;;;5041069;28;20322;-43
2022/02/10 04:12:00;;;;;;;6.73;4.00;;;6.30;99.90;;;;;;5021398;28;20231;-43
2022/02/10 04:14:32;;;;;;;10.43;4.97;;;6.40;99.90;;;;;;5037741;28;20192;-45
2022/02/10 04:17:26;;;;;;;11.27;5.03;;;6.40;99.90;;;;;;5031980;28;20687;-47
2022/02/10 04:20:24;;;;;;;10.67;4.47;;;6.30;99.90;;;;;;5040767;28;20231;-44
2022/02/10 04:23:03;;;;;;;7.60;4.47;;;6.30;99.90;;;;;;5039339;28;20282;-47
2022/02/10 04:25:46;;;;;;;17.13;5.97;;;6.30;99.90;;;;;;5030122;28;20545;-46
2022/02/10 04:28:27;;;;;;;9.70;5.30;;;6.40;99.90;;;;;;5027077;28;20215;-45
2022/02/10 04:31:14;;;;;;;10.67;5.47;;;6.30;99.90;;;;;;5038266;28;20288;-44
2022/02/10 04:56:24;;;;;;;11.47;6.07;;;6.30;99.90;;;;;;5013224;28;20200;-45
2022/02/10 04:59:10;;;;;;;14.30;6.90;;;6.20;99.90;;;;;;5021945;28;20235;-44
2022/02/10 05:01:52;;;;;;;15.60;7.00;;;6.30;99.90;;;;;;5036074;28;20214;-47
2022/02/10 05:04:48;;;;;;;14.53;7.83;;;6.30;99.90;;;;;;5032320;28;20222;-45
2022/02/10 05:16:26;;;;;;;20.63;7.67;;;6.30;99.90;;;;;;5027808;28;20205;-46
2022/02/10 05:22:15;;;;;;;13.17;6.83;;;6.20;99.90;;;;;;5076865;28;20581;-47
2022/02/10 05:33:11;;;;;;;12.07;5.90;;;6.30;99.90;;;;;;5068046;28;20198;-51
2022/02/10 05:35:42;;;;;;;15.20;6.70;;;6.30;99.90;;;;;;5062090;28;20307;-46
2022/02/10 05:38:13;;;;;;;23.30;9.50;;;6.30;99.90;;;;;;5062261;28;20225;-46
2022/02/10 05:43:40;;;;;;;18.57;7.90;;;6.30;99.90;;;;;;5064181;28;20186;-47
2022/02/10 05:46:16;;;;;;;16.93;7.43;;;6.30;99.90;;;;;;5047274;28;20283;-44
2022/02/10 05:54:25;;;;;;;21.13;9.77;;;6.30;99.90;;;;;;5067326;28;20250;-46
2022/02/10 05:57:07;;;;;;;14.17;7.63;;;6.30;99.90;;;;;;5057175;28;20190;-45
2022/02/10 06:00:10;;;;;;;21.07;7.73;;;6.30;99.90;;;;;;5053975;28;20566;-51
2022/02/10 06:38:02;;;;;;;17.80;7.77;;;6.30;99.90;;;;;;5061581;28;20202;-47
2022/02/10 06:48:00;;;;;;;11.43;5.37;;;6.10;99.90;;;;;;5032520;28;20225;-45
2022/02/10 06:50:58;;;;;;;11.67;5.67;;;6.20;99.90;;;;;;5040079;28;20300;-45
2022/02/10 06:53:34;;;;;;;8.73;5.47;;;6.20;99.90;;;;;;5041247;28;20228;-45
2022/02/10 06:56:23;;;;;;;9.47;5.90;;;6.20;99.90;;;;;;5050811;28;20677;-45
2022/02/10 07:04:45;;;;;;;8.47;5.67;;;6.20;99.90;;;;;;5048904;28;20681;-49
2022/02/10 07:15:54;;;;;;;10.80;6.17;;;6.20;99.90;;;;;;5034704;28;20205;-47
2022/02/10 07:52:14;;;;;;;9.93;6.13;;;6.30;99.90;;;;;;5041016;28;20198;-45
2022/02/10 07:54:46;;;;;;;19.30;8.20;;;6.30;99.90;;;;;;5049777;28;20664;-43
2022/02/10 07:57:26;;;;;;;17.40;7.10;;;6.30;99.90;;;;;;5053586;28;20249;-43
2022/02/10 08:00:19;;;;;;;11.90;5.97;;;6.30;99.90;;;;;;5040716;28;20885;-43
2022/02/10 08:50:15;;;;;;;11.77;4.97;;;6.50;99.90;;;;;;5029825;28;20290;-44
2022/02/10 08:55:34;;;;;;;9.93;5.80;;;6.50;99.90;;;;;;5048102;28;20191;-45
2022/02/10 09:01:22;;;;;;;11.70;6.03;;;6.50;99.90;;;;;;5041144;28;20208;-44
2022/02/10 09:04:01;;;;;;;7.07;4.93;;;6.50;99.90;;;;;;5049766;28;20582;-44
2022/02/10 09:06:48;;;;;;;8.73;5.47;;;6.60;99.90;;;;;;5031632;28;20226;-44
2022/02/10 09:09:56;;;;;;;7.60;5.17;;;6.60;99.90;;;;;;5038785;28;20279;-43
2022/02/10 09:18:29;;;;;;;6.77;5.20;;;6.60;99.90;;;;;;5090950;27;20575;-44
2022/02/10 09:21:28;;;;;;;8.77;5.10;;;6.60;99.90;;;;;;5078620;28;20205;-43
2022/02/10 09:52:29;;;;;;;12.47;7.10;;;7.00;99.90;;;;;;5076585;28;20199;-46
2022/02/10 10:00:21;;;;;;;15.70;8.17;;;6.90;99.90;;;;;;5079323;28;20209;-42
2022/02/10 10:02:53;;;;;;;13.90;7.47;;;6.90;99.90;;;;;;5077255;28;20216;-42
2022/02/10 10:05:29;;;;;;;18.63;8.63;;;6.90;99.90;;;;;;5075692;28;20198;-45
2022/02/10 10:08:18;;;;;;;23.93;8.53;;;6.90;99.90;;;;;;5081597;28;20578;-42
2022/02/10 10:10:57;;;;;;;17.80;7.90;;;6.90;99.90;;;;;;5067803;28;20206;-43
2022/02/10 10:13:46;;;;;;;13.20;7.57;;;6.90;99.90;;;;;;5071896;28;20194;-42
2022/02/10 10:16:42;;;;;;;15.97;7.37;;;6.90;99.90;;;;;;5074095;28;20210;-42
2022/02/10 10:19:23;;;;;;;15.63;7.80;;;7.00;99.90;;;;;;5077956;28;20218;-44
2022/02/10 10:22:02;;;;;;;12.13;7.87;;;7.00;99.90;;;;;;5077973;28;20198;-47
2022/02/10 10:24:54;;;;;;;26.60;8.83;;;7.00;99.90;;;;;;5053837;28;20283;-41
2022/02/10 10:27:43;;;;;;;15.77;7.57;;;7.10;99.90;;;;;;5064737;28;20238;-41
2022/02/10 10:49:49;;;;;;;9.07;6.23;;;7.20;99.90;;;;;;5065023;28;20286;-42
2022/02/10 10:52:28;;;;;;;13.17;6.63;;;7.20;99.90;;;;;;5064087;28;20667;-42
2022/02/10 10:55:10;;;;;;;12.03;6.40;;;7.30;99.90;;;;;;5063618;28;20207;-43
2022/02/10 10:57:40;;;;;;;10.70;5.90;;;7.30;99.90;;;;;;5040193;28;20218;-42
2022/02/10 11:00:44;;;;;;;11.80;6.80;;;7.30;99.90;;;;;;5056088;28;20210;-42
2022/02/10 11:36:52;;;;;;;16.70;6.37;;;7.60;99.90;;;;;;5060793;28;20210;-45
2022/02/10 11:39:35;;;;;;;8.37;5.70;;;7.70;99.90;;;;;;5062917;28;20222;-42
2022/02/10 11:42:27;;;;;;;10.83;5.53;;;7.70;99.90;;;;;;5047307;28;20223;-44
2022/02/10 12:36:41;;;;;;;7.30;2.50;;;7.80;99.90;;;;;;5109277;27;20263;-46
2022/02/10 12:39:36;;;;;;;6.67;2.00;;;7.80;99.90;;;;;;5101829;28;20212;-49
2022/02/10 14:09:33;;;;;;;10.37;2.67;;;7.60;99.90;;;;;;5035729;28;20595;-46
2022/02/10 14:14:45;;;;;;;5.93;1.23;;;7.50;99.90;;;;;;5014475;28;20203;-47
2022/02/10 14:17:17;;;;;;;6.07;1.50;;;7.50;99.90;;;;;;5045588;28;20198;-43
2022/02/10 14:19:57;;;;;;;10.90;2.10;;;7.60;99.90;;;;;;5033151;28;20246;-43
2022/02/10 14:22:38;;;;;;;5.03;1.57;;;7.60;99.90;;;;;;5042777;28;20388;-46
2022/02/10 14:27:50;;;;;;;4.43;1.60;;;7.70;99.90;;;;;;5052077;28;20227;-44
2022/02/10 14:30:17;;;;;;;8.37;1.77;;;7.70;99.90;;;;;;5053349;28;20191;-44
2022/02/10 14:32:45;;;;;;;10.13;2.70;;;7.70;99.90;;;;;;5057431;28;20219;-48
2022/02/10 14:35:18;;;;;;;3.13;1.20;;;7.70;99.90;;;;;;5039254;28;20203;-43
2022/02/10 14:38:08;;;;;;;9.83;1.30;;;7.70;99.90;;;;;;5045920;28;20231;-43
2022/02/10 14:41:01;;;;;;;4.27;1.20;;;7.60;99.90;;;;;;5047238;28;21072;-43
2022/02/10 15:10:47;;;;;;;5.20;1.13;;;7.60;99.90;;;;;;5050262;28;20223;-45
2022/02/10 15:11:48;;;;;;;5.57;1.20;;;6.90;99.90;;;;;;5035983;28;20219;-45
2022/02/10 15:17:13;;;;;;;1.83;0.57;;;6.90;99.90;;;;;;5042531;28;20241;-45
2022/02/10 15:36:38;;;;;;;5.17;1.43;;;6.20;99.90;;;;;;5043513;28;20218;-47
2022/02/10 15:53:29;;;;;;;3.57;1.20;;;6.10;99.90;;;;;;5003947;28;20238;-42
2022/02/10 16:16:02;;;;;;;7.77;2.40;;;5.90;99.90;;;;;;5031708;28;20273;-43
2022/02/10 16:18:16;;;;;;;5.00;1.50;;;5.90;99.90;;;;;;5034050;28;20250;-45
2022/02/10 16:20:48;;;;;;;11.30;2.23;;;5.80;99.90;;;;;;5031121;28;20204;-42
2022/02/10 16:23:18;;;;;;;7.80;2.20;;;5.80;99.90;;;;;;5034157;28;20649;-42
2022/02/10 16:25:49;;;;;;;7.20;1.83;;;5.80;99.90;;;;;;5022231;28;20214;-42
2022/02/10 16:28:25;;;;;;;5.70;2.00;;;5.80;99.90;;;;;;5030624;28;20223;-44
2022/02/10 16:30:52;;;;;;;6.67;1.87;;;5.90;99.90;;;;;;5035247;28;20210;-44
2022/02/10 16:33:20;;;;;;;8.43;2.07;;;5.80;99.90;;;;;;5032017;28;20219;-42
2022/02/10 16:35:47;;;;;;;10.87;2.10;;;5.80;99.90;;;;;;5035989;28;20210;-42
2022/02/10 16:38:14;;;;;;;6.03;1.80;;;5.80;99.90;;;;;;5034307;28;20211;-42
2022/02/10 16:40:42;;;;;;;10.83;2.00;;;5.90;99.90;;;;;;5022985;28;20235;-47
2022/02/10 16:43:08;;;;;;;7.47;2.20;;;5.80;99.90;;;;;;5030912;28;20216;-43
2022/02/10 16:45:36;;;;;;;7.00;2.47;;;5.80;99.90;;;;;;5016428;28;20208;-42
2022/02/10 16:48:04;;;;;;;8.93;1.73;;;5.90;99.90;;;;;;5034502;28;20233;-43
2022/02/10 16:50:32;;;;;;;6.60;2.03;;;5.90;99.90;;;;;;5033548;28;20506;-42
2022/02/10 16:53:02;;;;;;;7.57;2.37;;;5.90;99.90;;;;;;5036305;28;20211;-42
2022/02/10 16:55:41;;;;;;;12.23;2.00;;;5.90;99.90;;;;;;5020807;28;20304;-43
2022/02/10 16:58:18;;;;;;;8.53;2.50;;;5.80;99.90;;;;;;5029606;28;20214;-43
2022/02/10 17:15:38;;;;;;;6.10;1.60;;;5.70;99.90;;;;;;5032346;28;20239;-42
2022/02/10 17:20:48;;;;;;;7.73;2.27;;;5.80;99.90;;;;;;4984261;28;20228;-43
2022/02/10 17:26:23;;;;;;;10.20;1.93;;;5.70;99.90;;;;;;5019015;28;20215;-43
2022/02/10 17:28:51;;;;;;;12.17;2.33;;;5.70;99.90;;;;;;5022225;28;20270;-42
2022/02/10 17:31:43;;;;;;;15.17;2.33;;;5.60;99.90;;;;;;5035741;28;20256;-43
2022/02/10 17:37:13;;;;;;;10.40;2.00;;;5.60;99.90;;;;;;5008967;28;20286;-43
2022/02/10 17:42:58;;;;;;;5.70;1.17;;;5.50;99.90;;;;;;5025027;28;20270;-44
2022/02/10 17:45:48;;;;;;;18.13;2.67;;;5.50;99.90;;;;;;5039010;28;20260;-45
2022/02/10 17:53:44;;;;;;;11.17;1.43;;;5.40;99.90;;;;;;5036316;28;20199;-43
2022/02/10 17:56:12;;;;;;;11.30;2.40;;;5.40;99.90;;;;;;5029632;28;20180;-43
2022/02/10 17:58:39;;;;;;;9.10;1.57;;;5.40;99.90;;;;;;5011551;28;20229;-44
2022/02/10 18:01:07;;;;;;;9.67;2.30;;;5.30;99.90;;;;;;5031089;28;20954;-44
2022/02/10 18:03:34;;;;;;;13.83;2.00;;;5.40;99.90;;;;;;5036459;28;20192;-45
2022/02/10 18:08:50;;;;;;;7.10;2.07;;;5.40;99.90;;;;;;5026981;28;20204;-44
2022/02/10 18:11:47;;;;;;;9.27;2.40;;;5.30;99.90;;;;;;5039576;28;20274;-43
2022/02/10 18:14:21;;;;;;;8.40;2.40;;;5.40;99.90;;;;;;5013276;28;20208;-43
2022/02/10 18:16:52;;;;;;;6.93;2.97;;;5.30;99.90;;;;;;5035095;28;20206;-44
2022/02/10 18:19:23;;;;;;;10.10;1.93;;;5.30;99.90;;;;;;5023713;28;20253;-43
2022/02/10 18:22:23;;;;;;;6.90;1.73;;;5.30;99.90;;;;;;5044204;28;20191;-43
2022/02/10 18:25:01;;;;;;;7.97;1.90;;;5.20;99.90;;;;;;5040125;28;20199;-46
2022/02/10 18:27:36;;;;;;;10.77;2.07;;;5.20;99.90;;;;;;5037683;28;20211;-46
2022/02/10 18:30:19;;;;;;;8.70;1.93;;;5.20;99.90;;;;;;5021756;28;20205;-48
2022/02/10 19:06:27;;;;;;;14.87;2.67;;;5.00;99.90;;;;;;5033991;28;20288;-44
2022/02/10 19:09:03;;;;;;;10.80;2.20;;;5.00;99.90;;;;;;5037647;28;20220;-46
2022/02/10 19:11:30;;;;;;;5.47;1.77;;;5.00;99.90;;;;;;5041064;28;20195;-43
2022/02/10 19:14:03;;;;;;;7.87;1.63;;;5.00;99.90;;;;;;5033782;28;20198;-44
2022/02/10 19:16:31;;;;;;;8.83;1.60;;;5.00;99.90;;;;;;5028378;28;20856;-46
2022/02/10 19:18:58;;;;;;;7.47;1.70;;;5.00;99.90;;;;;;5032758;28;20233;-46
2022/02/10 19:21:24;;;;;;;9.37;2.27;;;5.00;99.90;;;;;;5028438;28;20203;-47
2022/02/10 19:23:51;;;;;;;7.70;1.73;;;5.00;99.90;;;;;;5035887;28;20608;-46
2022/02/10 19:26:18;;;;;;;8.87;2.40;;;5.00;99.90;;;;;;5038590;28;20187;-46
2022/02/10 19:28:44;;;;;;;5.03;1.70;;;4.90;99.90;;;;;;5044872;28;20211;-44
2022/02/10 19:31:16;;;;;;;8.17;1.60;;;4.90;99.90;;;;;;5020205;28;22045;-46
2022/02/10 19:33:44;;;;;;;4.50;1.43;;;4.90;99.90;;;;;;5041799;28;20590;-44
2022/02/10 19:36:12;;;;;;;7.87;1.73;;;4.90;99.90;;;;;;5034935;28;20899;-47
2022/02/10 19:38:38;;;;;;;3.80;1.50;;;4.90;99.90;;;;;;5034183;28;20224;-43
2022/02/10 19:41:05;;;;;;;5.53;1.83;;;4.90;99.90;;;;;;5038155;28;20279;-45
2022/02/10 19:43:32;;;;;;;5.17;1.50;;;4.80;99.90;;;;;;5045694;28;20196;-43
2022/02/10 19:45:59;;;;;;;5.40;1.40;;;4.80;99.90;;;;;;5037245;28;20664;-43
2022/02/10 19:48:26;;;;;;;6.90;1.53;;;4.80;99.90;;;;;;5024861;28;20229;-45
2022/02/10 19:50:55;;;;;;;4.23;1.53;;;4.80;99.90;;;;;;5036078;28;20249;-47
2022/02/10 19:53:22;;;;;;;6.87;1.57;;;4.80;99.90;;;;;;5030908;28;20211;-46
2022/02/10 19:55:52;;;;;;;8.70;1.97;;;4.80;99.90;;;;;;5029995;28;20204;-44
2022/02/10 19:58:22;;;;;;;5.40;1.53;;;4.70;99.90;;;;;;5036652;28;20221;-44
2022/02/10 20:00:52;;;;;;;4.53;1.40;;;4.70;99.90;;;;;;5045859;28;20210;-46
2022/02/10 20:03:21;;;;;;;8.20;2.00;;;4.70;99.90;;;;;;5027757;28;21042;-46
2022/02/10 20:05:51;;;;;;;10.20;2.10;;;4.70;99.90;;;;;;5030218;28;20678;-45
2022/02/10 20:08:23;;;;;;;7.77;1.67;;;4.60;99.90;;;;;;5046519;28;20720;-43
2022/02/10 20:10:53;;;;;;;5.07;1.20;;;4.60;99.90;;;;;;5048130;28;20195;-45
2022/02/10 20:13:21;;;;;;;7.63;2.03;;;4.50;99.90;;;;;;5031497;28;20208;-46
2022/02/10 20:15:50;;;;;;;11.20;2.33;;;4.50;99.90;;;;;;5035478;28;20298;-43
2022/02/10 20:18:18;;;;;;;3.63;1.23;;;4.50;99.90;;;;;;5031469;28;20207;-45
2022/02/10 20:20:46;;;;;;;10.83;2.10;;;4.50;99.90;;;;;;5012024;28;20212;-47
2022/02/10 20:23:13;;;;;;;10.20;1.90;;;4.50;99.90;;;;;;5038074;28;20195;-45
2022/02/10 20:25:42;;;;;;;8.03;1.60;;;4.50;99.90;;;;;;5039670;28;20198;-47
2022/02/10 20:28:09;;;;;;;10.83;1.73;;;4.50;99.90;;;;;;5037889;28;20211;-44
2022/02/10 20:30:37;;;;;;;5.47;2.27;;;4.50;99.90;;;;;;5035500;28;20206;-48
2022/02/10 20:33:05;;;;;;;9.33;2.40;;;4.50;99.90;;;;;;5027015;28;20224;-46
2022/02/10 20:35:32;;;;;;;7.17;1.87;;;4.50;99.90;;;;;;5032092;28;20753;-46
2022/02/10 20:38:01;;;;;;;5.03;1.60;;;4.50;99.90;;;;;;5022061;28;20227;-51
2022/02/10 20:40:30;;;;;;;9.93;1.90;;;4.50;99.90;;;;;;5032434;28;20505;-47
2022/02/10 20:43:04;;;;;;;5.57;1.43;;;4.50;99.90;;;;;;5037121;28;20565;-50
2022/02/10 20:45:33;;;;;;;9.77;2.03;;;4.50;99.90;;;;;;5021567;28;20211;-48
2022/02/10 20:47:59;;;;;;;15.37;4.60;;;4.50;99.90;;;;;;5030691;28;20226;-49
2022/02/10 20:50:26;;;;;;;11.63;2.20;;;4.50;99.90;;;;;;5020484;28;20226;-53
2022/02/10 20:52:53;;;;;;;10.73;2.47;;;4.40;99.90;;;;;;5018799;28;20226;-50
2022/02/10 20:55:20;;;;;;;11.43;2.43;;;4.40;99.90;;;;;;5037212;28;20199;-51
2022/02/10 20:57:47;;;;;;;10.30;2.03;;;4.40;99.90;;;;;;5032770;28;20223;-50
2022/02/10 21:00:17;;;;;;;10.20;1.80;;;4.40;99.90;;;;;;5036960;28;20660;-50
2022/02/10 21:02:46;;;;;;;7.90;1.93;;;4.40;99.90;;;;;;5030793;28;20218;-49
2022/02/10 21:05:27;;;;;;;11.30;2.33;;;4.40;99.90;;;;;;5030801;28;20211;-47
2022/02/10 21:08:03;;;;;;;4.83;1.73;;;4.40;99.90;;;;;;5009118;28;20223;-47
2022/02/10 21:10:30;;;;;;;9.20;2.27;;;4.40;99.90;;;;;;5029315;28;20198;-52
2022/02/10 21:12:57;;;;;;;5.20;2.20;;;4.40;99.90;;;;;;5032556;28;21136;-48
2022/02/10 21:15:29;;;;;;;4.40;2.10;;;4.40;99.90;;;;;;5036771;28;20224;-54
2022/02/10 21:18:01;;;;;;;10.20;2.00;;;4.40;99.90;;;;;;5034125;28;20242;-49
2022/02/10 21:20:30;;;;;;;8.80;1.80;;;4.30;99.90;;;;;;5028479;28;20207;-51
2022/02/10 21:23:05;;;;;;;6.50;3.10;;;4.30;99.90;;;;;;5015480;28;20206;-51
2022/02/10 21:25:35;;;;;;;7.53;1.97;;;4.30;99.90;;;;;;5036701;28;20202;-52
2022/02/10 21:28:06;;;;;;;8.53;1.63;;;4.30;99.90;;;;;;5034210;28;20227;-51
2022/02/10 21:30:34;;;;;;;12.43;1.93;;;4.30;99.90;;;;;;5031796;28;20210;-49
2022/02/10 21:33:04;;;;;;;8.60;1.57;;;4.30;99.90;;;;;;5034640;28;21073;-50
2022/02/10 21:35:43;;;;;;;7.50;2.27;;;4.30;99.90;;;;;;5028867;28;20207;-53
2022/02/10 21:38:16;;;;;;;14.37;2.00;;;4.30;99.90;;;;;;5021345;28;20317;-50
2022/02/10 21:54:53;;;;;;;12.13;1.77;;;4.20;99.90;;;;;;5038905;28;20202;-50
2022/02/10 21:57:37;;;;;;;9.27;2.20;;;4.20;99.90;;;;;;5054519;28;20195;-43
2022/02/10 22:00:33;;;;;;;7.03;2.60;;;4.20;99.90;;;;;;5051900;28;20721;-45
2022/02/10 22:06:15;;;;;;;11.23;2.40;;;4.20;99.90;;;;;;5043808;28;20835;-49
2022/02/10 22:09:07;;;;;;;7.07;1.77;;;4.20;99.90;;;;;;5046345;28;20218;-45
2022/02/10 22:11:56;;;;;;;7.87;1.80;;;4.10;99.90;;;;;;5033494;28;20663;-44
2022/02/10 22:17:26;;;;;;;11.50;2.20;;;4.20;99.90;;;;;;5053818;28;20317;-46
2022/02/10 22:19:58;;;;;;;9.23;2.07;;;4.10;99.90;;;;;;5040880;28;20192;-44
2022/02/10 22:22:35;;;;;;;5.27;1.97;;;4.10;99.90;;;;;;5041606;28;20249;-46
2022/02/10 22:25:06;;;;;;;7.43;1.73;;;4.10;99.90;;;;;;5037565;28;20215;-47
2022/02/10 22:27:36;;;;;;;8.63;2.03;;;4.10;99.90;;;;;;5046413;28;20319;-45
2022/02/10 22:30:11;;;;;;;10.90;2.87;;;4.10;99.90;;;;;;5052879;28;20198;-45
2022/02/10 22:32:48;;;;;;;9.93;2.00;;;4.10;99.90;;;;;;5047052;28;20201;-48
2022/02/10 22:35:15;;;;;;;5.70;1.50;;;4.10;99.90;;;;;;5049001;28;20292;-45
2022/02/10 22:37:42;;;;;;;9.27;1.80;;;4.10;99.90;;;;;;5041767;28;20276;-50
2022/02/10 22:40:11;;;;;;;7.03;1.70;;;4.10;99.90;;;;;;5046486;28;20308;-46
2022/02/10 22:42:38;;;;;;;7.73;2.17;;;4.10;99.90;;;;;;5029548;28;20245;-50
2022/02/10 22:45:06;;;;;;;7.07;1.73;;;4.10;99.90;;;;;;5051131;28;20211;-47
2022/02/10 22:47:33;;;;;;;6.47;1.80;;;4.10;99.90;;;;;;5050899;28;20219;-48
2022/02/10 22:50:01;;;;;;;5.97;1.87;;;4.10;99.90;;;;;;5045373;28;20708;-47
2022/02/10 22:52:27;;;;;;;6.67;2.00;;;4.10;99.90;;;;;;5051622;28;20222;-46
2022/02/10 22:54:54;;;;;;;14.30;2.33;;;4.10;99.90;;;;;;5029964;28;20187;-48
2022/02/10 22:57:21;;;;;;;8.60;2.37;;;4.10;99.90;;;;;;5026721;28;20572;-45
2022/02/10 22:59:48;;;;;;;11.33;2.03;;;4.10;99.90;;;;;;5030843;28;20393;-50
2022/02/10 23:02:15;;;;;;;4.40;1.60;;;4.10;99.90;;;;;;5035622;28;20238;-48
2022/02/10 23:04:42;;;;;;;8.23;2.37;;;4.10;99.90;;;;;;5025987;28;20939;-45
2022/02/10 23:07:10;;;;;;;6.93;1.80;;;4.10;99.90;;;;;;5026539;28;20201;-44
2022/02/10 23:09:41;;;;;;;5.93;1.63;;;4.10;99.90;;;;;;5027598;28;20955;-45
2022/02/10 23:12:09;;;;;;;7.43;1.80;;;4.10;99.90;;;;;;5024697;28;20211;-46
2022/02/10 23:14:35;;;;;;;9.90;2.03;;;4.00;99.90;;;;;;5027814;28;20656;-48
2022/02/10 23:17:02;;;;;;;7.90;1.90;;;4.00;99.90;;;;;;5038606;28;20206;-46
2022/02/10 23:19:29;;;;;;;3.27;1.73;;;4.00;99.90;;;;;;5028767;28;20207;-50
2022/02/10 23:21:56;;;;;;;5.27;1.60;;;4.00;99.90;;;;;;5025506;28;20220;-45
2022/02/10 23:24:24;;;;;;;14.77;1.97;;;4.00;99.90;;;;;;5033856;28;20202;-49
2022/02/10 23:26:51;;;;;;;10.40;1.80;;;4.00;99.90;;;;;;5020328;28;20207;-45
2022/02/10 23:29:18;;;;;;;8.50;2.20;;;4.00;99.90;;;;;;5038836;28;20242;-46
2022/02/10 23:31:45;;;;;;;7.97;1.97;;;4.00;99.90;;;;;;5024336;28;20376;-48
2022/02/10 23:34:12;;;;;;;7.93;1.93;;;4.00;99.90;;;;;;5032239;28;20275;-51
2022/02/10 23:36:47;;;;;;;7.17;1.63;;;3.90;99.90;;;;;;5028073;28;20434;-48
2022/02/10 23:39:20;;;;;;;11.33;2.50;;;3.90;99.90;;;;;;5037784;28;20700;-52
2022/02/10 23:42:02;;;;;;;7.43;1.87;;;3.90;99.90;;;;;;5026434;28;20203;-52
2022/02/10 23:44:32;;;;;;;10.13;2.00;;;3.90;99.90;;;;;;5018248;28;20576;-49
2022/02/10 23:47:01;;;;;;;10.13;1.93;;;3.90;99.90;;;;;;5032854;28;20204;-47
2022/02/10 23:49:30;;;;;;;10.67;1.87;;;3.90;99.90;;;;;;5033291;28;20207;-46
2022/02/10 23:52:00;;;;;;;5.40;1.77;;;3.90;99.90;;;;;;5025721;28;20211;-47
2022/02/10 23:54:29;;;;;;;7.27;2.47;;;3.90;99.90;;;;;;5022997;28;20200;-45
2022/02/10 23:57:02;;;;;;;7.70;1.73;;;3.90;99.90;;;;;;5029216;28;20198;-49
2022/02/10 23:59:48;;;;;;;10.33;1.77;;;3.90;99.90;;;;;;5014842;28;20215;-47
